createdAt,value
2024-03-05T00:00:14.673Z,97757.09
2024-03-05T00:02:42.774Z,97773.19
2024-03-05T00:05:10.454Z,97771.09
2024-03-05T00:07:37.150Z,97777.81
2024-03-05T00:10:04.553Z,97746.31
2024-03-05T00:12:32.281Z,97770.03
2024-03-05T00:14:59.169Z,97769.00
2024-03-05T00:17:26.001Z,97761.72
2024-03-05T00:19:53.590Z,97766.00
2024-03-05T00:22:21.115Z,97770.72
2024-03-05T00:24:47.812Z,97771.50
2024-03-05T00:27:15.156Z,97776.38
2024-03-05T00:29:42.248Z,97774.16
2024-03-05T00:32:08.982Z,97776.75
2024-03-05T00:34:35.847Z,97774.34
2024-03-05T00:37:02.501Z,97764.94
2024-03-05T00:39:29.187Z,97782.44
2024-03-05T00:41:55.884Z,97776.72
2024-03-05T00:44:22.643Z,97781.59
2024-03-05T00:46:49.173Z,97782.84
2024-03-05T00:49:16.284Z,97773.28
2024-03-05T00:51:42.988Z,97782.84
2024-03-05T00:54:11.116Z,97792.84
2024-03-05T00:56:38.419Z,97781.66
2024-03-05T00:59:05.400Z,97774.28
2024-03-05T01:01:32.106Z,97787.13
2024-03-05T01:03:59.397Z,97791.41
2024-03-05T01:06:26.074Z,97780.00
2024-03-05T01:08:52.782Z,97785.72
2024-03-05T01:11:19.349Z,97778.97
2024-03-05T01:13:46.084Z,97775.13
2024-03-05T01:16:12.767Z,97775.88
2024-03-05T01:18:39.397Z,97766.53
2024-03-05T01:21:08.934Z,97768.22
2024-03-05T01:23:35.773Z,97763.72
2024-03-05T01:26:04.155Z,97769.44
2024-03-05T01:28:31.203Z,97770.09
2024-03-05T01:31:00.416Z,97780.06
2024-03-05T01:33:27.472Z,97762.34
2024-03-05T01:35:54.249Z,97766.44
2024-03-05T01:38:22.026Z,97762.34
2024-03-05T01:40:48.816Z,97761.72
2024-03-05T01:43:16.429Z,97762.13
2024-03-05T01:45:43.948Z,97769.47
2024-03-05T01:48:13.099Z,97767.84
2024-03-05T01:50:40.697Z,97763.75
2024-03-05T01:53:10.748Z,97758.44
2024-03-05T01:55:40.133Z,97761.31
2024-03-05T01:58:09.762Z,97766.56
2024-03-05T02:00:37.813Z,97759.25
2024-03-05T02:03:06.234Z,97765.75
2024-03-05T02:05:33.930Z,97753.78
2024-03-05T02:08:03.216Z,97749.72
2024-03-05T02:10:30.791Z,97763.72
2024-03-05T02:12:58.373Z,97764.56
2024-03-05T02:15:25.187Z,97753.19
2024-03-05T02:17:52.084Z,97760.31
2024-03-05T02:20:18.769Z,97753.78
2024-03-05T02:22:47.577Z,97738.16
2024-03-05T02:25:17.668Z,97763.16
2024-03-05T02:27:46.613Z,97760.91
2024-03-05T02:30:16.273Z,97755.38
2024-03-05T02:32:44.054Z,97767.19
2024-03-05T02:35:12.113Z,97772.91
2024-03-05T02:37:39.997Z,97760.69
2024-03-05T02:40:11.090Z,97764.97
2024-03-05T02:42:38.211Z,97763.94
2024-03-05T02:45:08.542Z,97762.50
2024-03-05T02:47:37.360Z,97759.06
2024-03-05T02:50:04.928Z,97762.13
2024-03-05T02:52:32.399Z,97763.31
2024-03-05T02:54:59.258Z,97766.84
2024-03-05T02:57:26.004Z,97773.56
2024-03-05T02:59:52.873Z,97774.34
2024-03-05T03:02:21.368Z,97775.75
2024-03-05T03:04:48.888Z,97776.78
2024-03-05T03:07:15.448Z,97779.81
2024-03-05T03:09:46.312Z,97790.22
2024-03-05T03:12:12.924Z,97781.47
2024-03-05T03:14:45.283Z,97785.31
2024-03-05T03:17:12.395Z,97791.47
2024-03-05T03:19:39.227Z,97793.06
2024-03-05T03:22:06.144Z,97799.00
2024-03-05T03:24:32.860Z,97791.47
2024-03-05T03:26:59.914Z,97796.16
2024-03-05T03:29:27.831Z,97796.34
2024-03-05T03:31:56.381Z,97776.19
2024-03-05T03:34:23.581Z,97796.75
2024-03-05T03:36:50.130Z,97804.09
2024-03-05T03:39:24.818Z,97789.00
2024-03-05T03:41:56.144Z,97795.94
2024-03-05T03:44:23.765Z,97797.59
2024-03-05T03:46:51.755Z,97798.81
2024-03-05T03:49:26.288Z,97791.47
2024-03-05T03:51:55.786Z,97802.06
2024-03-05T03:54:22.862Z,97800.84
2024-03-05T03:56:52.787Z,97803.66
2024-03-05T03:59:21.080Z,97801.66
2024-03-05T04:01:49.186Z,97808.78
2024-03-05T04:04:15.838Z,97808.59
2024-03-05T04:06:43.651Z,97817.53
2024-03-05T04:09:10.383Z,97817.97
2024-03-05T04:11:40.204Z,97816.13
2024-03-05T04:14:06.858Z,97818.38
2024-03-05T04:16:33.533Z,97812.88
2024-03-05T04:19:00.213Z,97815.91
2024-03-05T04:21:27.145Z,97821.19
2024-03-05T04:23:54.004Z,97808.19
2024-03-05T04:26:28.080Z,97823.25
2024-03-05T04:28:56.203Z,97820.78
2024-03-05T04:31:35.242Z,97818.56
2024-03-05T04:34:08.628Z,97824.88
2024-03-05T04:36:38.467Z,97818.16
2024-03-05T04:39:07.487Z,97831.38
2024-03-05T04:41:34.180Z,97827.31
2024-03-05T04:44:00.809Z,97827.31
2024-03-05T04:46:27.590Z,97829.75
2024-03-05T04:48:55.393Z,97785.22
2024-03-05T04:51:22.025Z,97825.91
2024-03-05T04:53:48.559Z,97828.56
2024-03-05T04:56:15.191Z,97832.44
2024-03-05T04:58:41.789Z,97825.72
2024-03-05T05:01:08.385Z,97821.84
2024-03-05T05:03:35.119Z,97824.06
2024-03-05T05:06:01.850Z,97821.22
2024-03-05T05:08:28.414Z,97824.09
2024-03-05T05:10:55.266Z,97826.53
2024-03-05T05:13:21.923Z,97828.56
2024-03-05T05:15:50.234Z,97820.03
2024-03-05T05:18:16.852Z,97824.06
2024-03-05T05:20:44.342Z,97814.28
2024-03-05T05:23:11.010Z,97806.38
2024-03-05T05:25:38.560Z,97824.06
2024-03-05T05:28:06.573Z,97820.59
2024-03-05T05:30:33.793Z,97826.91
2024-03-05T05:33:00.476Z,97826.09
2024-03-05T05:35:27.267Z,97824.25
2024-03-05T05:37:54.021Z,97822.41
2024-03-05T05:40:21.933Z,97827.28
2024-03-05T05:42:50.512Z,97826.91
2024-03-05T05:45:17.325Z,97815.94
2024-03-05T05:47:52.814Z,97815.16
2024-03-05T05:50:20.933Z,97830.41
2024-03-05T05:52:55.723Z,97843.66
2024-03-05T05:55:26.112Z,97822.88
2024-03-05T05:57:53.961Z,97834.44
2024-03-05T06:00:37.318Z,97829.75
2024-03-05T06:03:12.251Z,97837.50
2024-03-05T06:05:39.939Z,97833.22
2024-03-05T06:08:13.562Z,97833.00
2024-03-05T06:10:43.123Z,97838.31
2024-03-05T06:13:10.510Z,97839.13
2024-03-05T06:15:39.603Z,97839.31
2024-03-05T06:18:07.393Z,97835.84
2024-03-05T06:20:34.277Z,97834.22
2024-03-05T06:23:02.269Z,97827.28
2024-03-05T06:25:29.127Z,97835.84
2024-03-05T06:27:55.926Z,97838.50
2024-03-05T06:30:24.005Z,97832.19
2024-03-05T06:32:52.640Z,97835.06
2024-03-05T06:35:23.644Z,97835.84
2024-03-05T06:37:51.581Z,97836.88
2024-03-05T06:40:24.835Z,97835.44
2024-03-05T06:43:05.796Z,97846.03
2024-03-05T06:45:35.527Z,97846.03
2024-03-05T06:50:35.709Z,97843.38
2024-03-05T06:53:21.269Z,97846.63
2024-03-05T06:56:06.585Z,97852.97
2024-03-05T06:58:35.321Z,97849.72
2024-03-05T07:01:08.152Z,97862.34
2024-03-05T07:03:36.163Z,97862.34
2024-03-05T07:06:09.584Z,97874.56
2024-03-05T07:08:39.761Z,97871.69
2024-03-05T07:11:17.324Z,97878.03
2024-03-05T07:13:48.473Z,97877.00
2024-03-05T07:16:19.569Z,97877.41
2024-03-05T07:18:49.667Z,97878.03
2024-03-05T07:21:23.635Z,97882.50
2024-03-05T07:23:51.986Z,97884.53
2024-03-05T07:26:19.614Z,97883.91
2024-03-05T07:28:46.633Z,97885.16
2024-03-05T07:31:15.368Z,97885.56
2024-03-05T07:33:42.747Z,97848.50
2024-03-05T07:36:09.583Z,97890.25
2024-03-05T07:38:36.209Z,97887.00
2024-03-05T07:41:11.293Z,97886.78
2024-03-05T07:43:44.659Z,97894.97
2024-03-05T07:46:11.643Z,97893.31
2024-03-05T07:48:38.454Z,97892.31
2024-03-05T07:51:05.300Z,97894.53
2024-03-05T07:53:31.858Z,97897.38
2024-03-05T07:55:58.891Z,97898.00
2024-03-05T07:58:25.608Z,97902.69
2024-03-05T08:00:52.564Z,97905.13
2024-03-05T08:03:19.184Z,97905.56
2024-03-05T08:05:46.036Z,97899.44
2024-03-05T08:08:12.744Z,97910.84
2024-03-05T08:10:39.380Z,97874.81
2024-03-05T08:13:06.708Z,97912.88
2024-03-05T08:15:33.481Z,97916.16
2024-03-05T08:18:00.143Z,97914.13
2024-03-05T08:20:27.792Z,97911.06
2024-03-05T08:22:56.725Z,97910.41
2024-03-05T08:25:24.846Z,97914.09
2024-03-05T08:27:58.082Z,97921.41
2024-03-05T08:30:32.773Z,97913.03
2024-03-05T08:33:01.572Z,97912.03
2024-03-05T08:35:30.802Z,97917.75
2024-03-05T08:38:00.260Z,97913.25
2024-03-05T08:40:28.798Z,97918.94
2024-03-05T08:42:56.469Z,97914.88
2024-03-05T08:45:25.080Z,97923.22
2024-03-05T08:47:53.388Z,97911.44
2024-03-05T08:50:20.607Z,97915.69
2024-03-05T08:52:47.885Z,97922.41
2024-03-05T08:55:16.469Z,97917.13
2024-03-05T08:57:44.419Z,97926.25
2024-03-05T09:00:26.870Z,97935.63
2024-03-05T09:03:02.681Z,97941.16
2024-03-05T09:05:29.234Z,97929.13
2024-03-05T09:07:56.040Z,97933.63
2024-03-05T09:10:22.839Z,97932.38
2024-03-05T09:12:49.475Z,97927.72
2024-03-05T09:15:17.441Z,97926.31
2024-03-05T09:17:44.376Z,97938.13
2024-03-05T09:20:17.617Z,97934.47
2024-03-05T09:22:48.745Z,97937.91
2024-03-05T09:25:16.648Z,97942.81
2024-03-05T09:27:44.037Z,97945.91
2024-03-05T09:30:15.125Z,97950.75
2024-03-05T09:32:43.211Z,97949.78
2024-03-05T09:35:11.108Z,97953.63
2024-03-05T09:37:38.394Z,97949.53
2024-03-05T09:40:17.073Z,97949.94
2024-03-05T09:42:44.525Z,97940.97
2024-03-05T09:45:15.962Z,97954.63
2024-03-05T09:47:44.238Z,97951.97
2024-03-05T09:50:14.734Z,97953.59
2024-03-05T09:52:42.358Z,97958.50
2024-03-05T09:55:10.090Z,97963.34
2024-03-05T09:57:40.395Z,97959.28
2024-03-05T10:00:08.367Z,97963.59
2024-03-05T10:02:39.878Z,97963.16
2024-03-05T10:05:10.682Z,97966.22
2024-03-05T10:07:37.915Z,97963.16
2024-03-05T10:10:12.554Z,97970.34
2024-03-05T10:12:40.793Z,97974.78
2024-03-05T10:15:24.585Z,97973.56
2024-03-05T10:17:54.166Z,97976.81
2024-03-05T10:20:35.406Z,97981.91
2024-03-05T10:23:04.940Z,97978.41
2024-03-05T10:25:34.729Z,97972.91
2024-03-05T10:28:03.258Z,97980.06
2024-03-05T10:30:36.000Z,97981.69
2024-03-05T10:33:08.935Z,97980.47
2024-03-05T10:35:38.028Z,97985.16
2024-03-05T10:38:10.306Z,97975.75
2024-03-05T10:40:38.177Z,97984.09
2024-03-05T10:43:06.978Z,97971.00
2024-03-05T10:45:36.308Z,97974.22
2024-03-05T10:48:03.286Z,97968.47
2024-03-05T10:50:30.152Z,97977.75
2024-03-05T10:52:58.326Z,97984.41
2024-03-05T10:55:26.004Z,97984.75
2024-03-05T10:58:12.806Z,97983.88
2024-03-05T11:00:41.487Z,97981.94
2024-03-05T11:03:12.432Z,97981.13
2024-03-05T11:05:50.783Z,97990.50
2024-03-05T11:08:22.263Z,97986.81
2024-03-05T11:10:52.869Z,97978.56
2024-03-05T11:13:20.994Z,97987.41
2024-03-05T11:15:50.397Z,97987.69
2024-03-05T11:18:35.366Z,97983.38
2024-03-05T11:21:06.063Z,97986.31
2024-03-05T11:23:34.042Z,97984.78
2024-03-05T11:26:05.386Z,97980.34
2024-03-05T11:28:32.708Z,97964.78
2024-03-05T11:31:16.083Z,97979.81
2024-03-05T11:34:13.081Z,97979.34
2024-03-05T11:36:40.390Z,97978.03
2024-03-05T11:39:08.261Z,97972.63
2024-03-05T11:41:45.460Z,97971.72
2024-03-05T11:44:33.417Z,97931.50
2024-03-05T11:47:00.259Z,97975.34
2024-03-05T11:49:26.956Z,97974.25
2024-03-05T11:51:53.843Z,97963.47
2024-03-05T11:54:24.881Z,97961.94
2024-03-05T12:01:03.497Z,97966.88
2024-03-05T12:03:31.193Z,97965.84
2024-03-05T12:05:57.773Z,97970.56
2024-03-05T12:08:27.335Z,97969.28
2024-03-05T12:11:01.920Z,97966.84
2024-03-05T12:13:28.722Z,97974.16
2024-03-05T12:15:55.320Z,97976.66
2024-03-05T12:18:22.250Z,97970.91
2024-03-05T12:20:49.175Z,97972.97
2024-03-05T12:23:39.948Z,97976.72
2024-03-05T12:26:03.356Z,97953.34
2024-03-05T12:28:32.163Z,97964.72
2024-03-05T12:30:59.218Z,97972.00
2024-03-05T12:33:28.203Z,97970.16
2024-03-05T12:35:55.073Z,97967.19
2024-03-05T12:38:23.989Z,97974.78
2024-03-05T12:41:00.683Z,97974.00
2024-03-05T12:43:30.090Z,97973.47
2024-03-05T12:46:03.588Z,97972.25
2024-03-05T12:48:33.811Z,97972.25
2024-03-05T12:51:01.079Z,97975.44
2024-03-05T12:53:27.709Z,97973.19
2024-03-05T12:56:02.498Z,97970.28
2024-03-05T12:58:40.432Z,97978.09
2024-03-05T13:01:07.756Z,97970.94
2024-03-05T13:03:35.161Z,97980.59
2024-03-05T13:06:02.025Z,97977.72
2024-03-05T13:08:28.976Z,97971.38
2024-03-05T13:10:56.810Z,97973.97
2024-03-05T13:13:23.416Z,97973.28
2024-03-05T13:15:50.650Z,97971.56
2024-03-05T13:18:17.332Z,97972.50
2024-03-05T13:20:43.955Z,97967.06
2024-03-05T13:23:10.571Z,97966.56
2024-03-05T13:25:37.156Z,97961.56
2024-03-05T13:28:04.960Z,97957.38
2024-03-05T13:30:31.747Z,97956.28
2024-03-05T13:33:02.673Z,97959.94
2024-03-05T13:35:31.735Z,97946.91
2024-03-05T13:37:59.081Z,97959.94
2024-03-05T13:40:25.981Z,97955.19
2024-03-05T13:42:52.518Z,97952.44
2024-03-05T13:45:20.087Z,97955.63
2024-03-05T13:47:46.978Z,97943.94
2024-03-05T13:50:15.064Z,97958.81
2024-03-05T13:52:44.012Z,97951.88
2024-03-05T13:55:15.390Z,97956.13
2024-03-05T13:57:42.669Z,97955.34
2024-03-05T14:00:20.023Z,97959.72
2024-03-05T14:02:46.857Z,97953.34
2024-03-05T14:05:14.238Z,97952.69
2024-03-05T14:07:41.061Z,97953.13
2024-03-05T14:10:11.164Z,97958.00
2024-03-05T14:12:40.356Z,97957.88
2024-03-05T14:15:10.939Z,97948.84
2024-03-05T14:17:38.114Z,97949.88
2024-03-05T14:20:08.282Z,97953.13
2024-03-05T14:25:21.842Z,97950.03
2024-03-05T14:27:49.642Z,97954.69
2024-03-05T14:30:19.439Z,97948.97
2024-03-05T14:32:46.438Z,97944.69
2024-03-05T14:35:14.695Z,97950.28
2024-03-05T14:37:43.606Z,97952.94
2024-03-05T14:40:11.545Z,97941.31
2024-03-05T14:42:38.917Z,97952.00
2024-03-05T14:45:06.336Z,97956.88
2024-03-05T14:47:32.966Z,97945.53
2024-03-05T14:49:59.770Z,97949.94
2024-03-05T14:52:26.564Z,97960.81
2024-03-05T14:54:53.797Z,97954.91
2024-03-05T14:57:20.427Z,97958.69
2024-03-05T14:59:47.337Z,97956.47
2024-03-05T15:02:14.079Z,97967.75
2024-03-05T15:04:40.809Z,97970.25
2024-03-05T15:07:07.411Z,97964.72
2024-03-05T15:09:36.641Z,97966.91
2024-03-05T15:12:04.887Z,97956.84
2024-03-05T15:14:31.625Z,97963.19
2024-03-05T15:17:00.141Z,97964.00
2024-03-05T15:19:26.827Z,97962.84
2024-03-05T15:21:53.403Z,97971.03
2024-03-05T15:24:20.037Z,97969.81
2024-03-05T15:26:58.130Z,97969.81
2024-03-05T15:29:28.451Z,97978.09
2024-03-05T15:31:55.124Z,97964.22
2024-03-05T15:34:21.720Z,97966.50
2024-03-05T15:36:48.239Z,97972.06
2024-03-05T15:39:16.003Z,97968.56
2024-03-05T15:41:42.896Z,97966.59
2024-03-05T15:44:10.075Z,97974.13
2024-03-05T15:46:36.629Z,97964.06
2024-03-05T15:49:04.641Z,97967.56
2024-03-05T15:51:31.271Z,97970.13
2024-03-05T15:53:58.452Z,97963.78
2024-03-05T15:56:47.835Z,97967.09
2024-03-05T15:59:33.024Z,97959.47
2024-03-05T16:01:59.781Z,97978.03
2024-03-05T16:04:48.700Z,97984.47
2024-03-05T16:07:13.312Z,97984.97
2024-03-05T16:09:40.767Z,97990.28
2024-03-05T16:12:11.978Z,97995.69
2024-03-05T16:14:41.728Z,97997.16
2024-03-05T16:17:11.304Z,97996.34
2024-03-05T16:19:37.991Z,98002.09
2024-03-05T16:22:05.163Z,97994.38
2024-03-05T16:24:32.038Z,97999.34
2024-03-05T16:26:58.537Z,98017.16
2024-03-05T16:29:25.274Z,98020.34
2024-03-05T16:31:51.804Z,98014.06
2024-03-05T16:34:19.822Z,98026.38
2024-03-05T16:36:48.590Z,98019.91
2024-03-05T16:39:20.481Z,98028.72
2024-03-05T16:41:47.553Z,98022.03
2024-03-05T16:44:14.426Z,98024.06
2024-03-05T16:46:42.300Z,98032.91
2024-03-05T16:49:09.818Z,98030.25
2024-03-05T16:51:37.253Z,98031.56
2024-03-05T16:54:04.172Z,98035.69
2024-03-05T16:56:30.689Z,98041.00
2024-03-05T16:58:57.375Z,98034.47
2024-03-05T17:01:25.247Z,98042.66
2024-03-05T17:03:54.644Z,98040.84
2024-03-05T17:06:23.417Z,98035.75
2024-03-05T17:08:51.167Z,98039.78
2024-03-05T17:11:17.947Z,98044.09
2024-03-05T17:13:47.397Z,98043.09
2024-03-05T17:16:14.196Z,98044.34
2024-03-05T17:18:40.809Z,98044.75
2024-03-05T17:21:08.310Z,98051.09
2024-03-05T17:23:42.079Z,98050.91
2024-03-05T17:26:11.005Z,98051.75
2024-03-05T17:28:37.805Z,98063.41
2024-03-05T17:31:04.933Z,98063.22
2024-03-05T17:33:32.198Z,98022.88
2024-03-05T17:35:59.291Z,98061.38
2024-03-05T17:38:30.428Z,98063.66
2024-03-05T17:40:59.724Z,98066.53
2024-03-05T17:43:26.339Z,98069.38
2024-03-05T17:45:54.169Z,98070.00
2024-03-05T17:48:21.604Z,98069.00
2024-03-05T17:50:49.052Z,98064.91
2024-03-05T17:53:16.577Z,98063.94
2024-03-05T17:55:46.031Z,98067.00
2024-03-05T17:58:13.294Z,98069.47
2024-03-05T18:00:46.265Z,98066.22
2024-03-05T18:03:15.194Z,98073.34
2024-03-05T18:05:46.499Z,98085.75
2024-03-05T18:08:13.954Z,98086.75
2024-03-05T18:10:40.869Z,98086.97
2024-03-05T18:13:08.155Z,98091.03
2024-03-05T18:15:35.364Z,98096.94
2024-03-05T18:18:03.478Z,98090.22
2024-03-05T18:20:30.505Z,98098.16
2024-03-05T18:23:00.712Z,98085.09
2024-03-05T18:25:34.889Z,98091.22
2024-03-05T18:28:03.465Z,98100.81
2024-03-05T18:30:35.661Z,98089.34
2024-03-05T18:33:02.985Z,98099.78
2024-03-05T18:35:29.645Z,98110.97
2024-03-05T18:37:56.440Z,98108.53
2024-03-05T18:40:23.447Z,98106.84
2024-03-05T18:42:51.539Z,98119.22
2024-03-05T18:45:20.198Z,98117.34
2024-03-05T18:47:58.866Z,98118.97
2024-03-05T18:50:31.003Z,98116.56
2024-03-05T18:52:58.556Z,98125.97
2024-03-05T18:55:25.746Z,98130.28
2024-03-05T18:57:53.719Z,98134.13
2024-03-05T19:00:20.429Z,98132.84
2024-03-05T19:02:55.000Z,98130.06
2024-03-05T19:05:23.106Z,98132.56
2024-03-05T19:07:51.074Z,98125.13
2024-03-05T19:10:19.672Z,98106.91
2024-03-05T19:12:47.730Z,98104.25
2024-03-05T19:15:14.562Z,98094.88
2024-03-05T19:17:42.066Z,98126.72
2024-03-05T19:20:10.834Z,98125.50
2024-03-05T19:22:39.763Z,98135.41
2024-03-05T19:25:13.815Z,98136.81
2024-03-05T19:27:42.335Z,98148.19
2024-03-05T19:30:12.640Z,98137.13
2024-03-05T19:32:43.476Z,98141.75
2024-03-05T19:35:12.321Z,98144.03
2024-03-05T19:37:46.806Z,98142.78
2024-03-05T19:40:18.858Z,98114.19
2024-03-05T19:42:54.654Z,98154.38
2024-03-05T19:45:21.853Z,98148.38
2024-03-05T19:47:49.485Z,98156.41
2024-03-05T19:50:17.551Z,98155.66
2024-03-05T19:52:45.332Z,98156.66
2024-03-05T19:55:15.854Z,98163.13
2024-03-05T19:57:43.849Z,98155.53
2024-03-05T20:00:20.103Z,98155.09
2024-03-05T20:02:48.057Z,98152.28
2024-03-05T20:05:18.638Z,98150.22
2024-03-05T20:07:46.967Z,98146.16
2024-03-05T20:10:13.906Z,98152.69
2024-03-05T20:12:41.105Z,98147.41
2024-03-05T20:15:10.150Z,98152.31
2024-03-05T20:17:40.344Z,98154.19
2024-03-05T20:20:10.379Z,98137.59
2024-03-05T20:22:39.292Z,98155.91
2024-03-05T20:25:07.951Z,98155.50
2024-03-05T20:27:35.083Z,98154.72
2024-03-05T20:30:02.327Z,98144.06
2024-03-05T20:32:32.359Z,98157.34
2024-03-05T20:35:00.482Z,98146.53
2024-03-05T20:37:28.465Z,98156.31
2024-03-05T20:39:57.278Z,98152.06
2024-03-05T20:42:23.952Z,98155.91
2024-03-05T20:44:50.593Z,98155.41
2024-03-05T20:47:17.553Z,98156.59
2024-03-05T20:49:44.389Z,98153.31
2024-03-05T20:52:11.072Z,98154.94
2024-03-05T20:54:37.596Z,98163.78
2024-03-05T20:57:04.298Z,98147.34
2024-03-05T20:59:33.628Z,98157.06
2024-03-05T21:02:10.002Z,98164.44
2024-03-05T21:04:37.508Z,98162.16
2024-03-05T21:07:07.047Z,98162.06
2024-03-05T21:09:34.731Z,98169.59
2024-03-05T21:12:01.576Z,98173.63
2024-03-05T21:14:28.266Z,98174.38
2024-03-05T21:16:54.863Z,98171.47
2024-03-05T21:19:23.067Z,98126.78
2024-03-05T21:21:50.392Z,98181.31
2024-03-05T21:24:17.100Z,98187.94
2024-03-05T21:26:54.653Z,98183.16
2024-03-05T21:29:30.244Z,98186.25
2024-03-05T21:31:57.026Z,98179.41
2024-03-05T21:34:23.584Z,98172.50
2024-03-05T21:36:50.138Z,98180.78
2024-03-05T21:39:16.911Z,98179.41
2024-03-05T21:41:45.416Z,98183.88
2024-03-05T21:44:13.351Z,98181.91
2024-03-05T21:46:44.084Z,98179.47
2024-03-05T21:49:10.808Z,98139.78
2024-03-05T21:51:37.579Z,98182.97
2024-03-05T21:54:04.188Z,98188.09
2024-03-05T21:56:30.706Z,98188.34
2024-03-05T21:58:57.363Z,98193.34
2024-03-05T22:01:23.999Z,98200.16
2024-03-05T22:03:50.771Z,98192.94
2024-03-05T22:06:23.829Z,98192.22
2024-03-05T22:08:51.979Z,98211.63
2024-03-05T22:11:18.761Z,98216.75
2024-03-05T22:13:45.646Z,98209.06
2024-03-05T22:16:12.934Z,98207.41
2024-03-05T22:18:40.280Z,98208.38
2024-03-05T22:21:07.824Z,98205.44
2024-03-05T22:23:34.835Z,98208.41
2024-03-05T22:26:01.531Z,98208.84
2024-03-05T22:28:28.212Z,98205.00
2024-03-05T22:30:55.823Z,98206.28
2024-03-05T22:33:23.460Z,98214.47
2024-03-05T22:35:50.230Z,98214.97
2024-03-05T22:38:16.879Z,98212.75
2024-03-05T22:40:43.417Z,98209.09
2024-03-05T22:43:11.556Z,98216.69
2024-03-05T22:45:38.193Z,98219.97
2024-03-05T22:48:05.278Z,98224.16
2024-03-05T22:50:31.874Z,98239.44
2024-03-05T22:52:58.475Z,98226.44
2024-03-05T22:55:25.949Z,98215.91
2024-03-05T22:57:52.572Z,98231.22
2024-03-05T23:00:35.011Z,98235.38
2024-03-05T23:03:04.178Z,98227.81
2024-03-05T23:05:32.019Z,98240.81
2024-03-05T23:08:00.336Z,98237.84
2024-03-05T23:10:30.062Z,98245.88
2024-03-05T23:12:57.262Z,98246.09
2024-03-05T23:15:24.538Z,98244.69
2024-03-05T23:17:51.782Z,98251.69
2024-03-05T23:20:19.167Z,98246.47
2024-03-05T23:22:46.788Z,98251.78
2024-03-05T23:25:13.487Z,98252.78
2024-03-05T23:27:44.333Z,98250.41
2024-03-05T23:30:11.528Z,98257.66
2024-03-05T23:32:38.138Z,98262.38
2024-03-05T23:35:06.492Z,98259.22
2024-03-05T23:37:33.797Z,98257.56
2024-03-05T23:40:00.540Z,98266.78
2024-03-05T23:42:27.740Z,98261.34
2024-03-05T23:44:54.277Z,98260.91
2024-03-05T23:47:20.832Z,98266.47
2024-03-05T23:49:47.484Z,98266.63
2024-03-05T23:52:14.144Z,98267.97
2024-03-05T23:54:42.502Z,98268.28
2024-03-05T23:57:09.907Z,98269.13
2024-03-05T23:59:40.288Z,98268.16
